McDougal, Arkansas
Current Conditions -  °F | °C
As of 4:15 PM on Monday 26 Jan 2015 (Local Time) from K4M9 Reporting Station
NA  
Wind Chill: 50°   Ceiling: NA
Heat Index: 50°   Visibility: 10mi
Dew Point: 36°   Wind: 10mph
Humidity: 58%   Direction: 200°SSW
Pressure: 29.91"   Gusts: NA
Location:  36.44°N, 90.39°W
Report Text: K4M9 262215Z AUTO 20009KT 10SM 10/02 A2991 RMK AO2
Loading
Personal Weather Stations






























Interactive Weather Map New forecast layout! Learn more

10-Day Weather Forecast

Advertisements
Track Severe Weather on mobile